Mariq — SVA2152 — position and weather

sailwx.info

Track history (hours):
 
Tides and Currents Weather Stations Pressure Air Temp Water Temp Dewpoint Dewpoint Depression Visibility Wind Speed Wind Dir Waves Ship Positions

Mariq

Last reported at 2018-Jun-19 03:51 UTC. Time now 2018-Jun-20 03:39 UTC.
Position N 37°39' E 025°15'.

Length 57 m.

Type: Tanker. MMSI: 239758424.

Date/timePositionNaut miles runAvg speedWind from/ knotsBaromVisibWave heightAir tempDewpointWater temp
2018-Jun-19 03:51N 37°39' E 025°15'3 8.5
2018-Jun-19 03:29N 37°38' E 025°19'4 8.8
2018-Jun-19 02:59N 37°37' E 025°24'7 9.0
2018-Jun-19 02:15N 37°35' E 025°32'3 9.1
2018-Jun-19 01:57N 37°35' E 025°36'5 9.2
2018-Jun-19 01:26N 37°33' E 025°41'8 9.7
2018-Jun-19 00:39N 37°31' E 025°51'210.0
2018-Jun-19 00:28N 37°31' E 025°53'  
2018-Jun-15 01:43N 37°31' E 025°55'2 8.6
2018-Jun-15 01:30N 37°31' E 025°53'8 9.4
2018-Jun-15 00:36N 37°33' E 025°43'2 9.9
2018-Jun-15 00:22N 37°34' E 025°40'4 9.8
2018-Jun-15 00:00N 37°35' E 025°36'510.2
2018-Jun-14 23:31N 37°36' E 025°29'510.1
2018-Jun-14 23:00N 37°37' E 025°23'5 9.5
2018-Jun-14 22:30N 37°38' E 025°17'21 9.2
2018-Jun-14 20:13N 37°41' E 024°51'  
Track history (hours):
 
Tides and Currents Weather Stations Pressure Air Temp Water Temp Dewpoint Dewpoint Depression Visibility Wind Speed Wind Dir Waves Ship Positions

Mariq

Last reported at 2018-Jun-19 03:51 UTC. Time now 2018-Jun-20 03:39 UTC.
Position N 37°39' E 025°15'.

Length 57 m.

Type: Tanker. MMSI: 239758424.

Date/timePositionNaut miles runAvg speedWind from/ knotsBaromVisibWave heightAir tempDewpointWater temp
2018-Jun-19 03:51N 37°39' E 025°15'3 8.5
2018-Jun-19 03:29N 37°38' E 025°19'4 8.8
2018-Jun-19 02:59N 37°37' E 025°24'7 9.0
2018-Jun-19 02:15N 37°35' E 025°32'3 9.1
2018-Jun-19 01:57N 37°35' E 025°36'5 9.2
2018-Jun-19 01:26N 37°33' E 025°41'8 9.7
2018-Jun-19 00:39N 37°31' E 025°51'210.0
2018-Jun-19 00:28N 37°31' E 025°53'  
2018-Jun-15 01:43N 37°31' E 025°55'2 8.6
2018-Jun-15 01:30N 37°31' E 025°53'8 9.4
2018-Jun-15 00:36N 37°33' E 025°43'2 9.9
2018-Jun-15 00:22N 37°34' E 025°40'4 9.8
2018-Jun-15 00:00N 37°35' E 025°36'510.2
2018-Jun-14 23:31N 37°36' E 025°29'510.1
2018-Jun-14 23:00N 37°37' E 025°23'5 9.5
2018-Jun-14 22:30N 37°38' E 025°17'21 9.2
2018-Jun-14 20:13N 37°41' E 024°51'  

Dump ship's entire track history